Chemroad Wing — 3EAB8 — position and weather

sailwx.info

Track history (hours):
 
Tides and Currents Weather Stations Pressure Air Temp Water Temp Dewpoint Dewpoint Depression Visibility Wind Speed Wind Dir Waves Ship Positions

Chemroad Wing

Last reported at 2016-Aug-29 09:32 UTC. Time now 2016-Aug-29 12:57 UTC.
Position N 31°47' E 120°58'.

Length 170 m; draft 7.3 m.

Type: Ship (hazmat cat B). MMSI: 357740000.

Date/timePositionNaut miles runAvg speedWind from/ knotsBaromVisibWave heightAir tempDewpointWater temp
2016-Aug-29 09:32N 31°47' E 120°58'2010.1
2016-Aug-29 07:33N 31°60' E 120°40'1313.4
2016-Aug-29 06:33N 32°01' E 120°25'1313.3
2016-Aug-29 05:33N 31°56' E 120°10'1212.0
2016-Aug-29 04:33N 32°01' E 119°57'1413.7
2016-Aug-29 03:32N 32°14' E 119°52'10 0.2
2016-Aug-27 04:12N 32°05' E 119°56'24 9.0
2016-Aug-27 01:31N 32°01' E 120°24'33 8.2
2016-Aug-26 21:33N 31°47' E 120°58'1010.0
2016-Aug-26 20:33N 31°42' E 121°09'9 9.6
2016-Aug-26 19:33N 31°36' E 121°17'3 3.3
2016-Aug-26 18:33N 31°34' E 121°21'0 0.0
2016-Aug-26 17:33N 31°34' E 121°21'0 0.1
2016-Aug-26 16:33N 31°34' E 121°21'0 0.0
2016-Aug-26 15:33N 31°34' E 121°21'0 0.0
2016-Aug-26 14:33N 31°34' E 121°21'0 0.1
2016-Aug-26 13:33N 31°34' E 121°20'0 0.1
2016-Aug-26 12:33N 31°34' E 121°20'0 0.1
2016-Aug-26 11:33N 31°34' E 121°20'0 0.0
2016-Aug-26 10:33N 31°34' E 121°20'0 0.1
2016-Aug-26 09:33N 31°34' E 121°20'1 0.7
2016-Aug-26 08:33N 31°33' E 121°21'1010.5
2016-Aug-26 07:33N 31°26' E 121°30'9 8.9
2016-Aug-26 06:31N 31°21' E 121°39'114 4.4
2016-Aug-25 04:26N 29°39' E 122°36'1112.9
2016-Aug-25 03:32N 29°42' E 122°24'1211.6
2016-Aug-25 02:33N 29°49' E 122°13'1110.6
2016-Aug-25 01:33N 29°55' E 122°03'1412.3
2016-Aug-25 00:27N 29°59' E 121°48'2 0.1
2016-Aug-23 08:21N 29°59' E 121°45'6 5.3
2016-Aug-23 07:10N 29°58' E 121°52'6 8.8
2016-Aug-23 06:31N 29°59' E 121°59'1010.6
2016-Aug-23 05:33N 29°55' E 122°10'1211.3
2016-Aug-23 04:31N 29°46' E 122°18'7 0.2
2016-Aug-21 17:20N 29°45' E 122°26'  
2016-Aug-19 11:31N 29°44' E 122°26'  
Track history (hours):
 
Tides and Currents Weather Stations Pressure Air Temp Water Temp Dewpoint Dewpoint Depression Visibility Wind Speed Wind Dir Waves Ship Positions

Chemroad Wing

Last reported at 2016-Aug-29 09:32 UTC. Time now 2016-Aug-29 12:57 UTC.
Position N 31°47' E 120°58'.

Length 170 m; draft 7.3 m.

Type: Ship (hazmat cat B). MMSI: 357740000.

Date/timePositionNaut miles runAvg speedWind from/ knotsBaromVisibWave heightAir tempDewpointWater temp
2016-Aug-29 09:32N 31°47' E 120°58'2010.1
2016-Aug-29 07:33N 31°60' E 120°40'1313.4
2016-Aug-29 06:33N 32°01' E 120°25'1313.3
2016-Aug-29 05:33N 31°56' E 120°10'1212.0
2016-Aug-29 04:33N 32°01' E 119°57'1413.7
2016-Aug-29 03:32N 32°14' E 119°52'10 0.2
2016-Aug-27 04:12N 32°05' E 119°56'24 9.0
2016-Aug-27 01:31N 32°01' E 120°24'33 8.2
2016-Aug-26 21:33N 31°47' E 120°58'1010.0
2016-Aug-26 20:33N 31°42' E 121°09'9 9.6
2016-Aug-26 19:33N 31°36' E 121°17'3 3.3
2016-Aug-26 18:33N 31°34' E 121°21'0 0.0
2016-Aug-26 17:33N 31°34' E 121°21'0 0.1
2016-Aug-26 16:33N 31°34' E 121°21'0 0.0
2016-Aug-26 15:33N 31°34' E 121°21'0 0.0
2016-Aug-26 14:33N 31°34' E 121°21'0 0.1
2016-Aug-26 13:33N 31°34' E 121°20'0 0.1
2016-Aug-26 12:33N 31°34' E 121°20'0 0.1
2016-Aug-26 11:33N 31°34' E 121°20'0 0.0
2016-Aug-26 10:33N 31°34' E 121°20'0 0.1
2016-Aug-26 09:33N 31°34' E 121°20'1 0.7
2016-Aug-26 08:33N 31°33' E 121°21'1010.5
2016-Aug-26 07:33N 31°26' E 121°30'9 8.9
2016-Aug-26 06:31N 31°21' E 121°39'114 4.4
2016-Aug-25 04:26N 29°39' E 122°36'1112.9
2016-Aug-25 03:32N 29°42' E 122°24'1211.6
2016-Aug-25 02:33N 29°49' E 122°13'1110.6
2016-Aug-25 01:33N 29°55' E 122°03'1412.3
2016-Aug-25 00:27N 29°59' E 121°48'2 0.1
2016-Aug-23 08:21N 29°59' E 121°45'6 5.3
2016-Aug-23 07:10N 29°58' E 121°52'6 8.8
2016-Aug-23 06:31N 29°59' E 121°59'1010.6
2016-Aug-23 05:33N 29°55' E 122°10'1211.3
2016-Aug-23 04:31N 29°46' E 122°18'7 0.2
2016-Aug-21 17:20N 29°45' E 122°26'  
2016-Aug-19 11:31N 29°44' E 122°26'  

Dump ship's entire track history